Time;durP1;ratioP1;P1;durP2;ratioP2;P2;SDS_P1;SDS_P2;PMS_P1;PMS_P2;Temp;Humidity;BMP_temperature;BMP_pressure;BME280_temperature;BME280_humidity;BME280_pressure;Samples;Min_cycle;Max_cycle;Signal;HPM_P1;HPM_P2
2022/04/04 00:00:42;;;;;;;;;;;;;;;8.44;34.12;99897.53;4484888;31;34110;-63
2022/04/04 00:03:12;;;;;;;;;;;;;;;8.53;33.57;99907.63;4491659;31;34442;-62
2022/04/04 00:05:40;;;;;;;;;;;;;;;8.38;33.75;99908.63;4477982;31;32745;-61
2022/04/04 00:08:09;;;;;;;;;;;;;;;8.40;33.56;99907.53;4484927;31;33061;-62
2022/04/04 00:10:39;;;;;;;;;;;;;;;8.37;33.50;99907.69;4483451;32;32957;-64
2022/04/04 00:13:08;;;;;;;;;;;;;;;8.30;33.94;99908.19;4482444;31;33060;-60
2022/04/04 00:15:37;;;;;;;;;;;;;;;8.37;33.85;99905.03;4483290;31;32346;-60
2022/04/04 00:18:10;;;;;;;;;;;;;;;8.31;33.69;99907.22;4482974;32;35114;-62
2022/04/04 00:20:41;;;;;;;;;;;;;;;8.30;34.07;99909.03;4484078;31;34302;-61
2022/04/04 00:23:13;;;;;;;;;;;;;;;8.35;33.95;99911.44;4485582;31;35523;-63
2022/04/04 00:25:44;;;;;;;;;;;;;;;8.38;34.55;99912.13;4482763;31;33425;-63
2022/04/04 00:28:14;;;;;;;;;;;;;;;8.36;34.06;99907.81;4493799;31;34910;-68
2022/04/04 00:30:43;;;;;;;;;;;;;;;8.16;35.32;99907.25;4489262;31;34352;-62
2022/04/04 00:33:12;;;;;;;;;;;;;;;8.00;35.08;99909.16;4483333;31;34025;-61
2022/04/04 00:35:43;;;;;;;;;;;;;;;8.19;34.24;99908.03;4487551;31;32475;-62
2022/04/04 00:38:14;;;;;;;;;;;;;;;8.47;34.31;99908.00;4487480;31;34145;-63
2022/04/04 00:40:43;;;;;;;;;;;;;;;8.52;33.23;99907.72;4486213;31;33965;-61
2022/04/04 00:43:13;;;;;;;;;;;;;;;8.48;34.30;99909.75;4483093;31;34188;-62
2022/04/04 00:45:45;;;;;;;;;;;;;;;8.45;34.19;99909.94;4483003;31;33386;-62
2022/04/04 00:48:14;;;;;;;;;;;;;;;8.63;33.37;99913.22;4483644;31;33356;-61
2022/04/04 00:50:42;;;;;;;;;;;;;;;8.25;34.65;99913.81;4471051;31;34233;-63
2022/04/04 00:53:11;;;;;;;;;;;;;;;8.30;34.54;99914.38;4486259;31;34279;-61
2022/04/04 00:55:39;;;;;;;;;;;;;;;8.51;33.93;99906.88;4488725;31;33344;-61
2022/04/04 00:58:07;;;;;;;;;;;;;;;8.50;34.24;99904.28;4491257;31;33196;-62
2022/04/04 01:00:36;;;;;;;;;;;;;;;8.55;34.41;99905.72;4474164;31;33145;-66
2022/04/04 01:03:04;;;;;;;;;;;;;;;8.46;34.75;99906.28;4485751;31;34139;-62
2022/04/04 01:05:33;;;;;;;;;;;;;;;8.56;34.81;99902.09;4486210;32;32445;-62
2022/04/04 01:08:02;;;;;;;;;;;;;;;8.60;33.80;99910.75;4486175;31;33092;-65
2022/04/04 01:10:31;;;;;;;;;;;;;;;8.61;33.73;99910.66;4485078;31;34300;-61
2022/04/04 01:12:59;;;;;;;;;;;;;;;8.39;34.44;99911.16;4486299;31;33837;-62
2022/04/04 01:15:32;;;;;;;;;;;;;;;8.07;35.43;99906.97;4486318;31;32570;-62
2022/04/04 01:18:01;;;;;;;;;;;;;;;7.93;35.51;99902.50;4487877;31;33958;-61
2022/04/04 01:20:29;;;;;;;;;;;;;;;7.89;35.60;99909.78;4485347;31;35440;-61
2022/04/04 01:22:57;;;;;;;;;;;;;;;7.72;35.42;99907.31;4483786;31;34039;-64
2022/04/04 01:25:27;;;;;;;;;;;;;;;8.15;34.84;99910.88;4497540;31;32134;-61
2022/04/04 01:27:56;;;;;;;;;;;;;;;7.99;35.32;99919.88;4491213;31;34266;-61
2022/04/04 01:30:26;;;;;;;;;;;;;;;7.87;35.66;99924.19;4484794;31;33174;-62
2022/04/04 01:32:55;;;;;;;;;;;;;;;7.82;35.90;99918.25;4493651;31;33135;-61
2022/04/04 01:35:23;;;;;;;;;;;;;;;7.41;36.10;99917.09;4485078;31;32114;-62
2022/04/04 01:37:52;;;;;;;;;;;;;;;7.67;35.85;99926.25;4484491;31;34310;-62
2022/04/04 01:40:20;;;;;;;;;;;;;;;7.59;35.44;99919.66;4484573;31;34352;-59
2022/04/04 01:42:49;;;;;;;;;;;;;;;8.03;34.98;99921.44;4485943;31;34096;-60
2022/04/04 01:45:18;;;;;;;;;;;;;;;7.89;35.41;99919.59;4493469;31;33626;-60
2022/04/04 01:47:45;;;;;;;;;;;;;;;8.06;35.06;99918.59;4492294;31;33882;-59
2022/04/04 01:50:14;;;;;;;;;;;;;;;7.86;35.71;99915.31;4485829;31;33143;-62
2022/04/04 01:53:25;;;;;;;;;;;;;;;7.79;35.56;99921.97;4485112;31;32915;-61
2022/04/04 01:55:31;;;;;;;;;;;;;;;7.80;35.71;99917.47;4485842;31;34015;-62
2022/04/04 01:58:01;;;;;;;;;;;;;;;7.75;36.14;99916.94;4490264;31;32946;-62
2022/04/04 02:00:30;;;;;;;;;;;;;;;7.77;35.92;99920.34;4493628;31;36155;-61
2022/04/04 02:02:58;;;;;;;;;;;;;;;7.67;35.92;99923.56;4489129;31;34146;-65
2022/04/04 02:05:27;;;;;;;;;;;;;;;7.73;36.09;99924.13;4486122;31;33125;-61
2022/04/04 02:07:55;;;;;;;;;;;;;;;7.89;35.44;99919.59;4485129;31;34303;-61
2022/04/04 02:10:25;;;;;;;;;;;;;;;7.70;36.01;99917.19;4485368;31;33413;-61
2022/04/04 02:12:53;;;;;;;;;;;;;;;8.00;35.42;99916.28;4485221;31;34003;-62
2022/04/04 02:15:22;;;;;;;;;;;;;;;8.08;35.51;99912.19;4485861;31;32157;-63
2022/04/04 02:17:52;;;;;;;;;;;;;;;8.17;35.35;99908.94;4494834;31;32961;-61
2022/04/04 02:20:25;;;;;;;;;;;;;;;8.13;34.86;99911.91;4484927;31;33220;-61
2022/04/04 02:22:53;;;;;;;;;;;;;;;8.20;34.56;99907.06;4479645;31;34275;-60
2022/04/04 02:25:20;;;;;;;;;;;;;;;7.91;35.29;99910.56;4487077;31;31818;-61
2022/04/04 02:27:49;;;;;;;;;;;;;;;8.08;35.13;99906.84;4494778;31;33825;-61
2022/04/04 02:30:17;;;;;;;;;;;;;;;8.17;34.59;99910.75;4486657;31;33192;-61
2022/04/04 02:32:46;;;;;;;;;;;;;;;8.06;35.25;99905.25;4484815;31;33072;-60
2022/04/04 02:35:14;;;;;;;;;;;;;;;7.88;35.54;99916.06;4491694;31;33510;-60
2022/04/04 02:37:43;;;;;;;;;;;;;;;7.99;34.97;99918.06;4496783;31;35203;-61
2022/04/04 02:40:11;;;;;;;;;;;;;;;7.87;35.07;99917.03;4496085;31;35258;-60
2022/04/04 02:42:40;;;;;;;;;;;;;;;8.02;34.86;99919.69;4488944;31;34003;-60
2022/04/04 02:45:09;;;;;;;;;;;;;;;7.98;35.06;99913.72;4496076;31;34130;-61
2022/04/04 02:47:38;;;;;;;;;;;;;;;7.92;35.01;99919.41;4495204;31;33994;-62
2022/04/04 02:50:07;;;;;;;;;;;;;;;8.02;34.72;99912.56;4481129;31;34444;-62
2022/04/04 02:52:35;;;;;;;;;;;;;;;8.00;34.99;99924.28;4486970;31;32923;-60
2022/04/04 02:57:54;;;;;;;;;;;;;;;8.02;34.70;99917.03;4482608;31;32796;-62
2022/04/04 03:00:25;;;;;;;;;;;;;;;7.98;34.84;99918.19;4491715;31;33476;-60
2022/04/04 03:02:54;;;;;;;;;;;;;;;7.95;35.17;99924.56;4483142;31;33725;-60
2022/04/04 03:05:23;;;;;;;;;;;;;;;7.94;35.13;99918.38;4491196;31;33041;-61
2022/04/04 03:07:51;;;;;;;;;;;;;;;7.93;34.99;99921.16;4485227;31;34262;-62
2022/04/04 03:10:20;;;;;;;;;;;;;;;7.84;35.25;99927.88;4484448;31;33171;-62
2022/04/04 03:12:55;;;;;;;;;;;;;;;7.79;35.05;99926.44;4482554;31;34050;-60
2022/04/04 03:15:23;;;;;;;;;;;;;;;7.71;35.32;99929.56;4491049;31;32653;-59
2022/04/04 03:17:53;;;;;;;;;;;;;;;7.57;35.78;99927.72;4486748;31;31995;-60
2022/04/04 03:20:23;;;;;;;;;;;;;;;7.56;35.77;99931.34;4479884;32;35588;-62
2022/04/04 03:22:53;;;;;;;;;;;;;;;7.58;35.47;99932.13;4485926;31;33053;-62
2022/04/04 03:25:23;;;;;;;;;;;;;;;7.50;35.69;99937.03;4485689;31;35017;-61
2022/04/04 03:27:52;;;;;;;;;;;;;;;7.39;35.81;99939.47;4488556;31;32928;-59
2022/04/04 03:30:25;;;;;;;;;;;;;;;7.41;35.66;99935.75;4494453;31;34458;-60
2022/04/04 03:32:57;;;;;;;;;;;;;;;7.37;35.63;99933.37;4483569;31;34174;-62
2022/04/04 03:35:29;;;;;;;;;;;;;;;7.40;35.36;99934.03;4482921;31;35042;-60
2022/04/04 03:37:58;;;;;;;;;;;;;;;7.38;35.37;99933.28;4480707;31;34177;-60
2022/04/04 03:40:28;;;;;;;;;;;;;;;7.38;35.41;99937.75;4481755;31;33998;-59
2022/04/04 03:42:57;;;;;;;;;;;;;;;7.29;35.47;99935.59;4482045;31;34005;-63
2022/04/04 03:45:26;;;;;;;;;;;;;;;7.30;35.49;99937.34;4486665;31;33482;-60
2022/04/04 03:47:55;;;;;;;;;;;;;;;7.26;35.79;99941.16;4484647;31;33879;-60
2022/04/04 03:50:24;;;;;;;;;;;;;;;7.33;35.51;99937.16;4482913;31;35559;-63
2022/04/04 03:52:52;;;;;;;;;;;;;;;7.29;35.33;99948.91;4480891;31;36471;-60
2022/04/04 03:55:26;;;;;;;;;;;;;;;7.22;35.87;99943.09;4481936;31;33162;-60
2022/04/04 03:57:55;;;;;;;;;;;;;;;7.14;35.92;99946.22;4489772;31;35239;-62
2022/04/04 04:00:25;;;;;;;;;;;;;;;7.12;35.62;99944.56;4481299;31;33273;-60
2022/04/04 04:02:56;;;;;;;;;;;;;;;7.07;35.88;99944.84;4480380;31;35154;-62
2022/04/04 04:05:24;;;;;;;;;;;;;;;7.16;35.44;99947.00;4484450;31;33502;-60
2022/04/04 04:07:53;;;;;;;;;;;;;;;7.15;35.43;99957.72;4481225;31;33982;-63
2022/04/04 04:10:23;;;;;;;;;;;;;;;7.11;36.04;99951.72;4482158;31;33112;-62
2022/04/04 04:12:55;;;;;;;;;;;;;;;7.24;35.36;99951.88;4487627;31;34190;-62
2022/04/04 04:15:25;;;;;;;;;;;;;;;7.26;35.51;99962.44;4485421;31;33690;-60
2022/04/04 04:17:54;;;;;;;;;;;;;;;7.27;35.61;99959.69;4497758;31;33176;-62
2022/04/04 04:20:23;;;;;;;;;;;;;;;7.23;36.04;99960.81;4484862;31;34123;-61
2022/04/04 04:22:54;;;;;;;;;;;;;;;7.28;35.38;99952.53;4489382;31;33975;-61
2022/04/04 04:25:23;;;;;;;;;;;;;;;7.28;35.49;99949.88;4480551;31;34938;-62
2022/04/04 04:27:52;;;;;;;;;;;;;;;7.37;35.27;99952.00;4482782;31;32868;-64
2022/04/04 04:30:20;;;;;;;;;;;;;;;7.44;35.25;99954.22;4479704;31;31854;-63
2022/04/04 04:32:52;;;;;;;;;;;;;;;7.45;34.65;99947.09;4483212;31;32879;-63
2022/04/04 04:35:24;;;;;;;;;;;;;;;7.43;35.22;99949.84;4480923;31;32061;-61
2022/04/04 04:37:54;;;;;;;;;;;;;;;7.51;35.52;99948.53;4483610;31;32656;-64
2022/04/04 04:40:29;;;;;;;;;;;;;;;7.53;36.05;99955.50;4497532;31;33187;-62
2022/04/04 04:43:01;;;;;;;;;;;;;;;7.58;35.74;99956.09;4482523;32;34711;-64
2022/04/04 04:45:30;;;;;;;;;;;;;;;7.55;35.33;99956.28;4482570;32;34529;-63
2022/04/04 04:47:58;;;;;;;;;;;;;;;7.30;37.05;99953.31;4484495;31;34161;-61
2022/04/04 04:50:27;;;;;;;;;;;;;;;7.55;35.47;99958.06;4489526;31;34374;-64
2022/04/04 04:52:55;;;;;;;;;;;;;;;7.64;35.01;99966.38;4485258;31;35022;-61
2022/04/04 04:55:24;;;;;;;;;;;;;;;7.63;36.88;99964.66;4492200;31;33400;-64
2022/04/04 04:57:55;;;;;;;;;;;;;;;7.24;36.27;99965.19;4490614;31;34282;-64
2022/04/04 05:00:26;;;;;;;;;;;;;;;7.40;35.65;99962.47;4492128;31;35405;-62
2022/04/04 05:05:42;;;;;;;;;;;;;;;7.51;36.39;99962.69;4483780;32;33386;-60
2022/04/04 05:08:12;;;;;;;;;;;;;;;7.55;35.66;99963.41;4482301;32;33779;-63
2022/04/04 05:10:40;;;;;;;;;;;;;;;7.59;35.69;99965.78;4482517;32;34387;-63
2022/04/04 05:13:09;;;;;;;;;;;;;;;7.70;35.41;99971.34;4482680;31;34373;-60
2022/04/04 05:15:37;;;;;;;;;;;;;;;7.68;36.80;99973.25;4481459;31;33257;-62
2022/04/04 05:18:06;;;;;;;;;;;;;;;8.03;35.18;99961.44;4482019;32;34769;-63
2022/04/04 05:20:35;;;;;;;;;;;;;;;8.16;34.71;99973.06;4481520;31;33275;-61
2022/04/04 05:23:03;;;;;;;;;;;;;;;8.32;34.27;99973.81;4482958;31;34118;-61
2022/04/04 05:25:31;;;;;;;;;;;;;;;8.39;34.46;99975.19;4488042;31;33549;-64
2022/04/04 05:28:02;;;;;;;;;;;;;;;8.43;35.24;99970.50;4488298;31;32984;-61
2022/04/04 05:30:39;;;;;;;;;;;;;;;8.91;33.58;99973.69;4490469;31;32957;-61
2022/04/04 05:33:09;;;;;;;;;;;;;;;9.65;32.62;99979.53;4489629;31;34286;-61
2022/04/04 05:35:37;;;;;;;;;;;;;;;9.88;31.75;99975.31;4484026;31;33516;-61
2022/04/04 05:38:05;;;;;;;;;;;;;;;9.80;31.62;99981.19;4480957;31;33018;-63
2022/04/04 05:40:34;;;;;;;;;;;;;;;9.91;32.18;99973.28;4494273;31;33196;-63
2022/04/04 05:43:02;;;;;;;;;;;;;;;9.97;32.18;99980.88;4483474;31;33887;-61
2022/04/04 05:45:31;;;;;;;;;;;;;;;9.78;31.38;99981.28;4481143;32;34472;-61
2022/04/04 05:47:59;;;;;;;;;;;;;;;9.54;32.64;99989.16;4481696;31;32846;-61
2022/04/04 05:50:27;;;;;;;;;;;;;;;9.65;32.19;99993.75;4492015;31;34864;-61
2022/04/04 05:52:56;;;;;;;;;;;;;;;9.74;31.81;99992.31;4482670;31;34201;-62
2022/04/04 05:55:24;;;;;;;;;;;;;;;9.48;33.00;99988.69;4487464;31;33984;-62
2022/04/04 05:57:53;;;;;;;;;;;;;;;9.74;32.51;99992.31;4488163;31;34160;-63
2022/04/04 06:00:22;;;;;;;;;;;;;;;9.85;33.13;99987.06;4485079;31;34110;-62
2022/04/04 06:02:50;;;;;;;;;;;;;;;9.73;33.30;99987.91;4484829;31;34143;-61
2022/04/04 06:05:19;;;;;;;;;;;;;;;9.98;32.06;99989.75;4470907;31;33369;-61
2022/04/04 06:07:47;;;;;;;;;;;;;;;9.89;32.91;99993.09;4486000;31;33989;-61
2022/04/04 06:10:16;;;;;;;;;;;;;;;9.75;33.34;99994.84;4487539;31;35051;-62
2022/04/04 06:12:45;;;;;;;;;;;;;;;9.79;33.22;99999.06;4495987;31;35162;-61
2022/04/04 06:15:15;;;;;;;;;;;;;;;10.20;32.75;100005.19;4486086;31;34417;-61
2022/04/04 06:17:53;;;;;;;;;;;;;;;10.30;32.97;100006.28;4485089;31;34091;-63
2022/04/04 06:20:21;;;;;;;;;;;;;;;9.90;33.92;100003.66;4482530;31;34369;-61
2022/04/04 06:22:52;;;;;;;;;;;;;;;10.59;31.55;100004.25;4489340;31;34281;-61
2022/04/04 06:25:21;;;;;;;;;;;;;;;10.68;31.31;100010.78;4489616;31;33500;-61
2022/04/04 06:27:50;;;;;;;;;;;;;;;10.40;32.73;100022.56;4482702;31;33057;-63
2022/04/04 06:30:21;;;;;;;;;;;;;;;10.75;31.74;100011.19;4480576;31;35223;-63
2022/04/04 06:32:50;;;;;;;;;;;;;;;11.06;30.19;100009.87;4490841;31;34506;-61
2022/04/04 06:35:19;;;;;;;;;;;;;;;11.43;30.75;100013.37;4484403;31;34003;-62
2022/04/04 06:37:47;;;;;;;;;;;;;;;11.48;30.65;100021.09;4491839;31;34186;-61
2022/04/04 06:40:16;;;;;;;;;;;;;;;11.45;31.29;100008.75;4480585;32;33867;-60
2022/04/04 06:42:46;;;;;;;;;;;;;;;11.69;30.81;100011.44;4485121;31;34312;-60
2022/04/04 06:45:17;;;;;;;;;;;;;;;11.73;30.79;100018.28;4484565;31;33760;-60
2022/04/04 06:47:47;;;;;;;;;;;;;;;11.60;30.08;100004.94;4482680;31;35308;-61
2022/04/04 06:50:16;;;;;;;;;;;;;;;11.03;32.10;100020.78;4483726;31;34174;-62
2022/04/04 06:52:45;;;;;;;;;;;;;;;11.56;29.57;100018.69;4485240;31;32885;-62
2022/04/04 06:55:34;;;;;;;;;;;;;;;11.34;29.38;100019.44;4483619;31;32912;-61
2022/04/04 06:58:03;;;;;;;;;;;;;;;11.31;29.24;100019.66;4474837;31;34122;-60
2022/04/04 07:00:31;;;;;;;;;;;;;;;11.13;30.96;100035.22;4481706;31;33255;-60
2022/04/04 07:03:01;;;;;;;;;;;;;;;11.23;30.17;100027.37;4483618;31;35500;-60
2022/04/04 07:05:31;;;;;;;;;;;;;;;11.12;30.98;100025.50;4486966;31;33797;-61
2022/04/04 07:07:59;;;;;;;;;;;;;;;10.78;32.02;100029.72;4488003;31;33820;-62
2022/04/04 07:10:27;;;;;;;;;;;;;;;10.90;31.47;100016.31;4487161;31;35311;-61
2022/04/04 07:12:56;;;;;;;;;;;;;;;11.39;30.55;100018.09;4495883;31;33889;-62
2022/04/04 07:15:24;;;;;;;;;;;;;;;11.21;30.45;100023.97;4480733;31;32847;-62
2022/04/04 07:17:52;;;;;;;;;;;;;;;10.43;31.63;100023.25;4480471;31;34437;-62
2022/04/04 07:20:20;;;;;;;;;;;;;;;10.96;30.86;100023.91;4483200;31;34142;-61
2022/04/04 07:22:48;;;;;;;;;;;;;;;10.06;33.04;100026.69;4485481;31;34632;-60
2022/04/04 07:25:17;;;;;;;;;;;;;;;10.81;30.95;100019.66;4481938;31;34139;-61
2022/04/04 07:27:46;;;;;;;;;;;;;;;11.04;30.42;100022.50;4489514;31;34366;-61
2022/04/04 07:30:16;;;;;;;;;;;;;;;11.07;31.75;100030.31;4478880;31;34371;-61
2022/04/04 07:32:46;;;;;;;;;;;;;;;11.47;30.66;100016.69;4481955;31;35124;-62
2022/04/04 07:35:14;;;;;;;;;;;;;;;9.93;33.63;100027.53;4478190;31;33264;-62
2022/04/04 07:37:43;;;;;;;;;;;;;;;11.03;31.07;100023.47;4489584;31;34329;-61
2022/04/04 07:40:11;;;;;;;;;;;;;;;11.30;31.17;100015.25;4489114;31;32955;-61
2022/04/04 07:42:39;;;;;;;;;;;;;;;11.82;30.75;100014.91;4483597;31;33870;-61
2022/04/04 07:45:08;;;;;;;;;;;;;;;11.86;30.06;100012.88;4483284;31;33456;-62
2022/04/04 07:47:37;;;;;;;;;;;;;;;11.64;31.39;100014.44;4487607;31;33932;-61
2022/04/04 07:50:07;;;;;;;;;;;;;;;11.50;30.88;100014.63;4492411;31;34256;-62
2022/04/04 07:52:37;;;;;;;;;;;;;;;11.33;29.87;100015.00;4481871;31;34063;-62
2022/04/04 07:55:06;;;;;;;;;;;;;;;11.98;29.35;100011.09;4482423;31;34378;-61
2022/04/04 07:57:34;;;;;;;;;;;;;;;12.15;29.33;100012.47;4484094;31;34524;-62
2022/04/04 08:00:04;;;;;;;;;;;;;;;11.96;30.33;100016.56;4481723;31;34558;-62
2022/04/04 08:02:33;;;;;;;;;;;;;;;12.66;27.96;100006.69;4481534;31;33234;-61
2022/04/04 08:05:04;;;;;;;;;;;;;;;12.82;27.81;100013.41;4489411;31;32381;-61
2022/04/04 08:07:32;;;;;;;;;;;;;;;13.24;26.48;100012.75;4491447;31;33332;-62
2022/04/04 08:10:00;;;;;;;;;;;;;;;13.33;25.83;100009.34;4481844;31;34145;-62
2022/04/04 08:12:29;;;;;;;;;;;;;;;13.62;24.78;100008.78;4468215;32;34836;-61
2022/04/04 08:14:58;;;;;;;;;;;;;;;13.50;26.50;100005.25;4488568;31;33120;-61
2022/04/04 08:17:26;;;;;;;;;;;;;;;13.85;25.05;99999.63;4487584;31;34352;-62
2022/04/04 08:19:54;;;;;;;;;;;;;;;14.54;22.64;100004.53;4479967;31;33642;-61
2022/04/04 08:22:23;;;;;;;;;;;;;;;13.55;25.23;100008.44;4483422;31;33780;-61
2022/04/04 08:24:51;;;;;;;;;;;;;;;14.10;22.66;100016.41;4492887;31;33479;-62
2022/04/04 08:27:25;;;;;;;;;;;;;;;14.41;21.81;100006.50;4484869;31;34087;-61
2022/04/04 08:29:57;;;;;;;;;;;;;;;14.93;20.84;100001.12;4482109;32;34945;-62
2022/04/04 08:32:30;;;;;;;;;;;;;;;14.64;22.50;100002.72;4484161;31;35277;-61
2022/04/04 08:35:04;;;;;;;;;;;;;;;14.32;22.68;100000.09;4489702;31;33403;-62
2022/04/04 08:37:38;;;;;;;;;;;;;;;13.78;24.79;99997.59;4484240;31;32815;-62
2022/04/04 08:40:11;;;;;;;;;;;;;;;14.04;25.03;100000.75;4488493;31;33079;-61
2022/04/04 08:42:48;;;;;;;;;;;;;;;13.71;24.89;99992.72;4484265;31;34023;-62
2022/04/04 08:45:19;;;;;;;;;;;;;;;13.80;24.04;99992.91;4493523;31;33160;-62
2022/04/04 08:47:50;;;;;;;;;;;;;;;13.75;25.10;99983.41;4482588;31;33745;-62
2022/04/04 08:50:23;;;;;;;;;;;;;;;13.32;26.31;99985.25;4486224;31;33667;-62
2022/04/04 08:52:54;;;;;;;;;;;;;;;14.24;24.71;99983.75;4490226;31;34598;-61
2022/04/04 08:55:31;;;;;;;;;;;;;;;13.32;26.37;99964.59;4473025;31;33533;-61
2022/04/04 08:58:03;;;;;;;;;;;;;;;13.54;26.67;99974.44;4483683;31;35250;-62
2022/04/04 09:00:36;;;;;;;;;;;;;;;13.53;25.94;99972.75;4483856;31;34438;-62
2022/04/04 09:03:10;;;;;;;;;;;;;;;13.49;25.43;99971.31;4487056;31;34910;-61
2022/04/04 09:05:56;;;;;;;;;;;;;;;13.44;26.34;99968.97;4488895;31;32085;-62
2022/04/04 09:08:32;;;;;;;;;;;;;;;13.10;27.37;99962.81;4496909;31;34445;-61
2022/04/04 09:11:03;;;;;;;;;;;;;;;12.89;26.80;99956.50;4492550;31;35362;-62
2022/04/04 09:13:35;;;;;;;;;;;;;;;13.49;26.75;99961.41;4482903;32;36481;-61
2022/04/04 09:16:05;;;;;;;;;;;;;;;13.44;25.25;99949.31;4486484;31;32354;-61
2022/04/04 09:18:35;;;;;;;;;;;;;;;13.52;24.42;99955.75;4483632;31;34316;-61
2022/04/04 09:21:12;;;;;;;;;;;;;;;12.22;25.06;99942.09;4488426;31;34304;-62
2022/04/04 09:23:55;;;;;;;;;;;;;;;13.08;26.51;99940.59;4493240;31;33919;-62
2022/04/04 09:26:43;;;;;;;;;;;;;;;13.05;26.14;99947.06;4488027;31;32048;-61
2022/04/04 09:29:19;;;;;;;;;;;;;;;12.94;26.31;99940.87;4485038;31;32859;-61
2022/04/04 09:31:59;;;;;;;;;;;;;;;12.71;25.20;99932.84;4488127;31;35557;-60
2022/04/04 09:34:49;;;;;;;;;;;;;;;12.40;25.54;99933.59;4488288;31;35504;-60
2022/04/04 09:37:21;;;;;;;;;;;;;;;12.15;26.41;99927.47;4485937;31;33570;-60
2022/04/04 09:40:03;;;;;;;;;;;;;;;11.90;26.88;99925.84;4488266;31;33036;-61
2022/04/04 09:42:51;;;;;;;;;;;;;;;11.91;26.36;99922.19;4485122;31;34239;-62
2022/04/04 09:45:24;;;;;;;;;;;;;;;12.67;25.52;99915.25;4483064;31;34037;-62
2022/04/04 09:48:11;;;;;;;;;;;;;;;12.62;26.28;99916.63;4487595;31;33298;-61
2022/04/04 09:50:49;;;;;;;;;;;;;;;12.42;25.52;99902.09;4488416;31;33262;-62
2022/04/04 09:53:29;;;;;;;;;;;;;;;12.52;27.23;99905.75;4492261;31;34262;-61
2022/04/04 09:56:03;;;;;;;;;;;;;;;13.44;24.34;99900.91;4486537;31;34176;-61
2022/04/04 09:58:34;;;;;;;;;;;;;;;13.19;25.18;99899.38;4493741;31;32392;-61
2022/04/04 10:01:12;;;;;;;;;;;;;;;13.26;25.99;99895.25;4484871;31;33771;-61
2022/04/04 10:03:45;;;;;;;;;;;;;;;13.34;24.04;99890.06;4477272;31;34470;-61
2022/04/04 10:06:15;;;;;;;;;;;;;;;13.69;23.58;99894.31;4479038;31;33593;-61
2022/04/04 10:08:54;;;;;;;;;;;;;;;13.32;24.59;99878.59;4476771;31;34074;-62
2022/04/04 10:11:35;;;;;;;;;;;;;;;12.80;25.44;99875.69;4488915;31;34903;-62
2022/04/04 10:14:07;;;;;;;;;;;;;;;12.92;26.54;99887.25;4482402;32;35145;-61
2022/04/04 10:16:38;;;;;;;;;;;;;;;12.83;26.23;99882.62;4493991;31;34031;-62
2022/04/04 10:19:17;;;;;;;;;;;;;;;12.81;25.41;99881.94;4489353;31;34357;-62
2022/04/04 10:21:48;;;;;;;;;;;;;;;12.02;25.90;99883.81;4480002;31;34083;-61
2022/04/04 10:24:17;;;;;;;;;;;;;;;11.99;25.42;99868.78;4492415;31;34119;-62
2022/04/04 10:26:52;;;;;;;;;;;;;;;12.65;26.08;99870.69;4478525;31;33922;-62
2022/04/04 10:29:25;;;;;;;;;;;;;;;12.41;27.02;99862.81;4472041;31;32246;-62
2022/04/04 10:32:02;;;;;;;;;;;;;;;12.63;26.70;99856.56;4487884;31;33994;-62
2022/04/04 10:34:43;;;;;;;;;;;;;;;12.89;26.29;99851.75;4478483;31;33435;-62
2022/04/04 10:37:20;;;;;;;;;;;;;;;12.99;26.63;99856.22;4484375;31;34094;-62
2022/04/04 10:39:52;;;;;;;;;;;;;;;13.64;26.45;99861.56;4490423;31;32414;-61
2022/04/04 10:42:24;;;;;;;;;;;;;;;13.05;27.57;99853.00;4483201;32;34392;-62
2022/04/04 10:45:13;;;;;;;;;;;;;;;13.12;25.88;99847.13;4492323;31;34166;-62
2022/04/04 10:47:55;;;;;;;;;;;;;;;13.44;25.41;99844.44;4491186;31;35009;-62
2022/04/04 10:50:30;;;;;;;;;;;;;;;12.24;25.75;99840.03;4478133;31;32030;-61
2022/04/04 10:53:02;;;;;;;;;;;;;;;12.95;26.75;99830.59;4494118;31;34295;-61
2022/04/04 10:55:38;;;;;;;;;;;;;;;12.46;27.03;99844.53;4485042;31;33403;-61
2022/04/04 10:58:19;;;;;;;;;;;;;;;12.70;27.30;99839.81;4485631;31;35885;-61
2022/04/04 11:00:52;;;;;;;;;;;;;;;12.31;27.67;99836.72;4485573;31;33624;-61
2022/04/04 11:03:36;;;;;;;;;;;;;;;11.14;26.88;99836.03;4489176;31;34178;-61
2022/04/04 11:09:04;;;;;;;;;;;;;;;11.89;26.95;99832.94;4484736;31;34078;-61
2022/04/04 11:11:54;;;;;;;;;;;;;;;11.31;27.91;99829.41;4488408;31;33362;-61
2022/04/04 11:14:46;;;;;;;;;;;;;;;11.20;28.25;99816.81;4482933;31;32912;-61
2022/04/04 11:19:55;;;;;;;;;;;;;;;10.86;28.20;99824.72;4480009;32;34222;-61
2022/04/04 11:22:28;;;;;;;;;;;;;;;11.23;29.42;99818.41;4484787;31;33072;-61
2022/04/04 11:25:04;;;;;;;;;;;;;;;11.53;28.58;99816.06;4484100;31;34078;-61
2022/04/04 11:27:48;;;;;;;;;;;;;;;11.36;30.10;99817.37;4481005;31;34205;-61
2022/04/04 11:30:24;;;;;;;;;;;;;;;12.32;28.92;99811.56;4483537;31;34144;-62
2022/04/04 11:32:54;;;;;;;;;;;;;;;12.75;28.64;99812.59;4477927;31;33541;-61
2022/04/04 11:35:27;;;;;;;;;;;;;;;13.16;27.20;99808.25;4482381;31;32994;-63
2022/04/04 11:38:06;;;;;;;;;;;;;;;12.81;27.99;99807.56;4481266;31;33212;-62
2022/04/04 11:40:44;;;;;;;;;;;;;;;12.64;28.24;99801.88;4481926;31;32690;-61
2022/04/04 11:43:12;;;;;;;;;;;;;;;12.68;30.97;99797.94;4481937;31;32596;-61
2022/04/04 11:45:41;;;;;;;;;;;;;;;11.25;30.16;99811.09;4481821;31;34412;-60
2022/04/04 11:48:17;;;;;;;;;;;;;;;10.90;30.55;99798.56;4481237;31;33123;-61
2022/04/04 11:50:46;;;;;;;;;;;;;;;12.09;29.93;99801.84;4479821;32;33591;-61
2022/04/04 11:53:14;;;;;;;;;;;;;;;12.06;30.93;99794.91;4480573;31;32053;-60
2022/04/04 11:55:45;;;;;;;;;;;;;;;11.25;31.54;99787.84;4484251;31;35036;-61
2022/04/04 11:58:15;;;;;;;;;;;;;;;11.24;31.55;99786.16;4482051;31;34468;-61
2022/04/04 12:00:53;;;;;;;;;;;;;;;11.43;32.79;99788.25;4483431;31;32662;-61
2022/04/04 12:03:25;;;;;;;;;;;;;;;10.54;31.47;99781.59;4486280;31;35047;-60
2022/04/04 12:05:55;;;;;;;;;;;;;;;10.13;32.60;99771.22;4486894;31;34062;-62
2022/04/04 12:08:26;;;;;;;;;;;;;;;10.13;35.03;99777.44;4482118;31;35560;-61
2022/04/04 12:10:54;;;;;;;;;;;;;;;11.20;31.91;99768.56;4486009;31;34239;-62
2022/04/04 12:13:22;;;;;;;;;;;;;;;10.99;32.09;99772.91;4479871;31;32180;-62
2022/04/04 12:15:54;;;;;;;;;;;;;;;11.64;31.44;99761.59;4485100;31;32892;-60
2022/04/04 12:18:28;;;;;;;;;;;;;;;12.02;30.27;99763.94;4488980;31;33425;-62
2022/04/04 12:20:58;;;;;;;;;;;;;;;10.63;33.55;99753.31;4481387;31;34117;-61
2022/04/04 12:26:16;;;;;;;;;;;;;;;10.10;34.59;99745.56;4473822;31;32756;-61
2022/04/04 12:28:47;;;;;;;;;;;;;;;9.61;33.46;99740.22;4482138;31;34378;-61
2022/04/04 12:31:18;;;;;;;;;;;;;;;10.28;33.16;99734.53;4483061;31;34820;-61
2022/04/04 12:33:57;;;;;;;;;;;;;;;11.34;34.65;99713.94;4482947;31;34314;-61
2022/04/04 12:36:30;;;;;;;;;;;;;;;11.29;34.28;99716.12;4479396;31;35077;-61
2022/04/04 12:38:59;;;;;;;;;;;;;;;10.80;32.15;99719.91;4483141;31;35263;-61
2022/04/04 12:41:27;;;;;;;;;;;;;;;10.46;32.08;99704.59;4487571;31;34275;-61
2022/04/04 12:44:03;;;;;;;;;;;;;;;11.17;31.73;99696.47;4482993;31;34613;-62
2022/04/04 12:46:32;;;;;;;;;;;;;;;9.97;33.05;99700.12;4484922;31;33922;-62
2022/04/04 12:49:10;;;;;;;;;;;;;;;11.20;32.19;99696.25;4484069;31;34421;-60
2022/04/04 12:51:39;;;;;;;;;;;;;;;10.91;32.54;99691.34;4487656;31;34250;-62
2022/04/04 12:54:07;;;;;;;;;;;;;;;10.99;31.80;99692.56;4483310;31;33398;-60
2022/04/04 12:56:48;;;;;;;;;;;;;;;10.59;33.34;99687.56;4486934;31;36603;-63
2022/04/04 12:59:18;;;;;;;;;;;;;;;11.66;31.56;99680.06;4489982;31;34027;-61
2022/04/04 13:02:05;;;;;;;;;;;;;;;11.68;31.92;99676.41;4491531;31;34084;-61
2022/04/04 13:04:35;;;;;;;;;;;;;;;12.56;30.82;99676.34;4487052;31;32142;-63
2022/04/04 13:07:30;;;;;;;;;;;;;;;12.30;30.40;99675.81;4490823;31;35288;-61
2022/04/04 13:09:57;;;;;;;;;;;;;;;12.31;29.87;99675.69;4494148;31;34292;-62
2022/04/04 13:12:29;;;;;;;;;;;;;;;12.41;29.54;99666.88;4485569;31;33078;-62
2022/04/04 13:14:58;;;;;;;;;;;;;;;12.98;29.75;99660.22;4485406;31;33307;-61
2022/04/04 13:17:36;;;;;;;;;;;;;;;13.74;28.07;99658.06;4486663;31;33504;-62
2022/04/04 13:20:05;;;;;;;;;;;;;;;13.56;28.98;99651.63;4483249;31;32528;-62
2022/04/04 13:22:34;;;;;;;;;;;;;;;13.50;28.72;99653.88;4484768;31;33777;-62
2022/04/04 13:25:02;;;;;;;;;;;;;;;14.00;27.71;99647.66;4481435;31;34442;-60